Time;durP1;ratioP1;P1;durP2;ratioP2;P2;SDS_P1;SDS_P2;PMS_P1;PMS_P2;Temp;Humidity;BMP_temperature;BMP_pressure;BME280_temperature;BME280_humidity;BME280_pressure;Samples;Min_cycle;Max_cycle;Signal;HPM_P1;HPM_P2
2023/09/02 00:00:09;;;;;;;2.67;1.25;;;;;;;15.29;84.71;100618.13;2074007;28;20039;-74
2023/09/02 00:01:18;;;;;;;1.98;1.20;;;;;;;15.29;85.12;100621.66;2079469;28;20062;-71
2023/09/02 00:02:20;;;;;;;2.40;1.40;;;;;;;15.30;84.89;100623.22;2083063;28;20148;-71
2023/09/02 00:03:22;;;;;;;4.40;1.27;;;;;;;15.30;84.94;100625.94;2073083;28;20065;-71
2023/09/02 00:04:24;;;;;;;3.70;1.35;;;;;;;15.31;84.92;100626.75;2065359;28;20933;-72
2023/09/02 00:05:25;;;;;;;3.38;1.58;;;;;;;15.28;85.29;100625.44;2057318;28;20043;-72
2023/09/02 00:06:29;;;;;;;3.38;1.48;;;;;;;15.28;84.82;100625.44;2065510;28;20035;-72
2023/09/02 00:07:34;;;;;;;2.35;1.33;;;;;;;15.28;84.99;100627.34;2081903;28;20068;-71
2023/09/02 00:08:36;;;;;;;3.40;1.38;;;;;;;15.27;85.38;100625.75;2069031;28;20041;-71
2023/09/02 00:09:38;;;;;;;5.85;1.48;;;;;;;15.27;84.99;100631.19;2073566;28;20836;-72
2023/09/02 00:10:40;;;;;;;6.97;1.60;;;;;;;15.27;84.92;100620.34;2065532;28;20043;-72
2023/09/02 00:11:44;;;;;;;2.75;1.27;;;;;;;15.26;85.32;100624.97;2073988;28;20074;-71
2023/09/02 00:12:47;;;;;;;3.47;1.42;;;;;;;15.27;85.03;100631.19;2081530;28;20151;-72
2023/09/02 00:13:48;;;;;;;5.40;1.50;;;;;;;15.26;85.18;100630.38;2065306;28;20043;-72
2023/09/02 00:14:50;;;;;;;3.47;1.50;;;;;;;15.27;84.87;100626.56;2065649;28;20158;-71
2023/09/02 00:15:54;;;;;;;1.98;1.30;;;;;;;15.27;84.90;100634.69;2065020;28;20888;-71
2023/09/02 00:16:56;;;;;;;3.85;1.45;;;;;;;15.28;85.29;100630.06;2073953;28;20135;-72
2023/09/02 00:17:57;;;;;;;3.47;1.45;;;;;;;15.28;85.05;100622.72;2073265;28;20128;-72
2023/09/02 00:18:59;;;;;;;3.00;1.40;;;;;;;15.28;85.13;100628.16;2073606;28;20099;-72
2023/09/02 00:20:05;;;;;;;4.68;1.40;;;;;;;15.28;85.20;100624.66;2072994;28;20138;-72
2023/09/02 00:21:07;;;;;;;3.15;1.25;;;;;;;15.29;85.18;100623.56;2074354;28;20041;-73
2023/09/02 00:22:11;;;;;;;2.97;1.20;;;;;;;15.29;85.22;100623.56;2079642;28;20042;-71
2023/09/02 00:23:13;;;;;;;2.88;1.23;;;;;;;15.30;84.90;100630.56;2074190;28;20041;-71
2023/09/02 00:24:15;;;;;;;3.55;1.40;;;;;;;15.28;85.16;100621.94;2074904;28;20070;-71
2023/09/02 00:25:17;;;;;;;2.53;1.48;;;;;;;15.29;85.25;100623.56;2078816;28;20038;-71
2023/09/02 00:26:19;;;;;;;3.55;1.38;;;;;;;15.29;84.95;100637.09;2080497;28;20155;-71
2023/09/02 00:27:22;;;;;;;3.22;1.60;;;;;;;15.30;84.95;100623.22;2079507;28;20861;-71
2023/09/02 00:28:24;;;;;;;4.70;1.20;;;;;;;15.29;84.84;100623.56;2074971;28;20894;-71
2023/09/02 00:29:26;;;;;;;1.92;1.25;;;;;;;15.28;85.15;100628.16;2080906;28;20037;-72
2023/09/02 00:30:27;;;;;;;3.58;1.40;;;;;;;15.28;85.32;100633.56;2071795;28;20089;-72
2023/09/02 00:31:31;;;;;;;3.67;1.50;;;;;;;15.28;85.24;100621.94;2071912;28;20113;-71
2023/09/02 00:32:35;;;;;;;2.47;1.30;;;;;;;15.28;85.16;100632.78;2071393;28;20180;-71
2023/09/02 00:33:40;;;;;;;3.97;1.60;;;;;;;15.25;85.12;100627.97;2063824;28;20118;-71
2023/09/02 00:34:41;;;;;;;2.38;1.20;;;;;;;15.26;85.54;100632.28;2080353;28;20045;-71
2023/09/02 00:35:42;;;;;;;2.08;1.40;;;;;;;15.26;85.35;100629.59;2071958;28;20856;-71
2023/09/02 00:36:44;;;;;;;5.53;1.60;;;;;;;15.24;85.47;100626.38;2063910;28;20182;-71
2023/09/02 00:37:49;;;;;;;3.50;1.27;;;;;;;15.24;85.57;100631.78;2074245;28;20030;-71
2023/09/02 00:38:51;;;;;;;3.03;1.50;;;;;;;15.23;85.26;100633.72;2080552;28;20898;-71
2023/09/02 00:39:55;;;;;;;3.05;1.70;;;;;;;15.23;85.60;100635.63;2080212;28;20038;-71
2023/09/02 00:41:07;;;;;;;4.82;1.55;;;;;;;15.22;85.76;100644.84;2081172;28;21232;-71
2023/09/02 00:42:12;;;;;;;2.95;1.40;;;;;;;15.22;85.61;100634.00;2086045;28;20034;-71
2023/09/02 00:43:14;;;;;;;1.92;1.40;;;;;;;15.22;85.77;100625.88;2071875;28;20870;-71
2023/09/02 00:44:18;;;;;;;2.45;1.77;;;;;;;15.22;85.54;100636.72;2063820;28;20042;-71
2023/09/02 00:45:23;;;;;;;3.63;1.60;;;;;;;15.23;85.97;100633.72;2055999;28;20704;-71
2023/09/02 00:46:29;;;;;;;2.97;1.73;;;;;;;15.23;85.60;100635.63;2055125;28;20071;-72
2023/09/02 00:47:31;;;;;;;2.50;1.77;;;;;;;15.23;85.64;100633.72;2063822;28;20062;-72
2023/09/02 00:48:33;;;;;;;3.38;1.90;;;;;;;15.25;85.59;100641.50;2066488;28;20043;-73
2023/09/02 00:49:36;;;;;;;6.00;1.80;;;;;;;15.25;85.53;100639.59;2079748;28;20042;-73
2023/09/02 00:50:37;;;;;;;2.17;1.65;;;;;;;15.25;85.48;100647.72;2078000;28;20045;-73
2023/09/02 00:51:39;;;;;;;2.85;1.80;;;;;;;15.25;85.70;100638.81;2077464;28;20053;-73
2023/09/02 00:52:41;;;;;;;3.50;1.70;;;;;;;15.24;85.86;100637.22;2065978;28;20898;-72
2023/09/02 00:53:44;;;;;;;3.15;1.80;;;;;;;15.23;85.79;100646.47;2080169;28;20232;-73
2023/09/02 00:54:49;;;;;;;2.28;1.40;;;;;;;15.23;85.55;100635.63;2079601;28;20912;-73
2023/09/02 00:55:52;;;;;;;2.50;1.70;;;;;;;15.20;85.90;100631.63;2071809;28;20040;-72
2023/09/02 00:56:57;;;;;;;2.85;1.55;;;;;;;15.22;85.89;100640.22;2063844;28;21393;-72
2023/09/02 00:57:59;;;;;;;3.33;1.50;;;;;;;15.18;86.14;100633.03;2083023;28;20037;-72
2023/09/02 00:59:05;;;;;;;4.60;1.65;;;;;;;15.23;86.04;100641.03;2087945;28;20041;-72
2023/09/02 01:00:09;;;;;;;3.08;1.90;;;;;;;15.22;85.81;100644.84;2071901;28;20054;-72
2023/09/02 01:01:12;;;;;;;3.40;1.70;;;;;;;15.23;85.82;100638.31;2077125;28;21010;-72
2023/09/02 01:02:14;;;;;;;2.83;1.50;;;;;;;15.22;85.81;100639.41;2087936;28;20033;-72
2023/09/02 01:03:16;;;;;;;3.97;1.67;;;;;;;15.22;85.77;100636.72;2072371;28;20058;-73
2023/09/02 01:04:21;;;;;;;3.95;1.73;;;;;;;15.19;86.36;100643.53;2074179;28;20045;-73
2023/09/02 01:05:23;;;;;;;6.35;1.70;;;;;;;15.21;85.90;100637.81;2089491;28;20068;-73
2023/09/02 01:06:25;;;;;;;2.35;1.50;;;;;;;15.20;86.18;100647.88;2097246;28;20033;-73
2023/09/02 01:07:27;;;;;;;3.53;1.40;;;;;;;15.21;85.99;100643.25;2082541;28;20829;-72
2023/09/02 01:08:29;;;;;;;5.25;1.63;;;;;;;15.20;86.01;100647.88;2065474;28;20109;-73
2023/09/02 01:09:32;;;;;;;4.20;1.83;;;;;;;15.19;86.16;100640.81;2058151;28;20389;-73
2023/09/02 01:10:36;;;;;;;3.10;1.60;;;;;;;15.19;86.06;100645.44;2065748;28;20089;-72
2023/09/02 01:11:37;;;;;;;6.18;1.98;;;;;;;15.20;86.15;100637.03;2057977;28;20031;-72
2023/09/02 01:12:40;;;;;;;2.55;1.60;;;;;;;15.20;86.26;100642.44;2074862;28;20030;-72
2023/09/02 01:13:43;;;;;;;3.83;2.47;;;;;;;15.18;86.33;100633.03;2074412;28;20037;-73
2023/09/02 01:14:44;;;;;;;3.20;1.70;;;;;;;15.21;86.13;100643.25;2074636;28;20057;-72
2023/09/02 01:15:45;;;;;;;2.72;1.40;;;;;;;15.20;86.45;100644.34;2074422;28;20046;-72
2023/09/02 01:16:47;;;;;;;4.07;1.70;;;;;;;15.20;86.61;100642.44;2074082;28;20038;-72
2023/09/02 01:17:48;;;;;;;2.50;1.60;;;;;;;15.21;85.98;100643.25;2074574;28;20108;-72
2023/09/02 01:18:50;;;;;;;6.20;1.52;;;;;;;15.19;86.13;100643.53;2082509;28;20040;-72
2023/09/02 01:19:56;;;;;;;2.92;1.45;;;;;;;15.20;86.05;100647.88;2082905;28;20034;-71
2023/09/02 01:21:14;;;;;;;4.20;1.60;;;;;;;15.19;86.56;100646.25;2091018;28;20800;-72
2023/09/02 01:22:44;;;;;;;4.65;1.67;;;;;;;15.18;86.43;100641.16;2074309;28;20725;-72
2023/09/02 01:24:06;;;;;;;3.92;1.67;;;;;;;15.19;86.28;100650.88;2069743;28;20668;-72
2023/09/02 01:25:19;;;;;;;5.45;1.70;;;;;;;15.19;86.40;100648.16;2087685;28;20033;-72
2023/09/02 01:26:45;;;;;;;2.50;1.40;;;;;;;15.18;86.42;100650.06;2080699;28;20037;-72
2023/09/02 01:27:57;;;;;;;2.72;1.80;;;;;;;15.17;86.26;100648.47;2073249;28;20030;-72
2023/09/02 01:29:05;;;;;;;3.20;1.48;;;;;;;15.16;86.41;100646.84;2075759;28;20116;-72
2023/09/02 01:30:13;;;;;;;3.63;1.67;;;;;;;15.16;86.29;100651.47;2082501;28;20964;-72
2023/09/02 01:31:17;;;;;;;4.60;1.67;;;;;;;15.15;86.40;100656.09;2082376;28;20033;-72
2023/09/02 01:32:19;;;;;;;8.68;1.73;;;;;;;15.13;86.22;100649.38;2082479;28;20037;-72
2023/09/02 01:33:25;;;;;;;3.40;1.52;;;;;;;15.12;86.43;100650.50;2074391;28;20038;-71
2023/09/02 01:34:34;;;;;;;3.13;1.42;;;;;;;15.12;86.56;100650.50;2066720;28;20041;-72
2023/09/02 01:35:39;;;;;;;2.35;1.60;;;;;;;15.11;86.64;100652.41;2075966;28;20069;-72
2023/09/02 01:36:41;;;;;;;3.13;1.50;;;;;;;15.11;86.46;100643.50;2083213;28;20757;-72
2023/09/02 01:37:45;;;;;;;2.00;1.45;;;;;;;15.11;86.63;100640.78;2090660;28;20041;-72
2023/09/02 01:38:50;;;;;;;3.38;1.60;;;;;;;15.11;86.50;100648.91;2081825;28;20147;-71
2023/09/02 01:39:57;;;;;;;3.08;1.45;;;;;;;15.11;86.75;100640.78;2067369;28;20163;-71
2023/09/02 01:41:01;;;;;;;6.35;1.75;;;;;;;15.10;86.55;100642.69;2083146;28;20022;-72
2023/09/02 01:42:06;;;;;;;2.92;1.60;;;;;;;15.11;86.74;100648.91;2082497;28;20034;-71
2023/09/02 01:43:09;;;;;;;2.55;1.60;;;;;;;15.10;86.87;100656.22;2082619;28;20042;-71
2023/09/02 01:44:12;;;;;;;2.03;1.60;;;;;;;15.10;86.55;100656.22;2074393;28;20046;-71
2023/09/02 01:45:17;;;;;;;2.72;1.52;;;;;;;15.09;86.77;100645.69;2075098;28;20784;-70
2023/09/02 01:46:19;;;;;;;3.22;1.70;;;;;;;15.08;86.91;100655.72;2082633;28;20030;-70
2023/09/02 01:47:22;;;;;;;6.70;2.00;;;;;;;15.08;87.18;100655.72;2082006;28;20049;-72
2023/09/02 01:48:26;;;;;;;5.88;1.95;;;;;;;15.06;87.01;100653.31;2090782;28;20033;-73
2023/09/02 01:49:30;;;;;;;4.22;2.00;;;;;;;15.08;87.07;100655.72;2082942;28;20841;-73
2023/09/02 01:50:34;;;;;;;3.30;1.65;;;;;;;15.07;87.12;100654.13;2074210;28;20034;-73
2023/09/02 01:51:40;;;;;;;2.70;1.60;;;;;;;15.06;86.94;100657.94;2064001;28;20066;-73
2023/09/02 01:52:43;;;;;;;4.53;1.88;;;;;;;15.07;86.98;100652.22;2074217;28;20891;-73
2023/09/02 01:53:45;;;;;;;3.20;1.80;;;;;;;15.08;86.84;100658.44;2074244;28;20073;-72
2023/09/02 01:54:50;;;;;;;4.43;1.90;;;;;;;15.07;86.82;100659.56;2074499;28;20042;-73
2023/09/02 01:55:53;;;;;;;3.00;1.60;;;;;;;15.09;87.14;100656.53;2066500;28;20041;-72
2023/09/02 01:56:55;;;;;;;3.80;1.92;;;;;;;15.09;87.18;100651.09;2074035;28;20047;-72
2023/09/02 01:58:00;;;;;;;4.57;1.80;;;;;;;15.07;87.36;100657.63;2065692;28;20831;-73
2023/09/02 01:59:02;;;;;;;4.95;1.92;;;;;;;15.09;86.97;100659.22;2058194;28;20786;-73
2023/09/02 02:00:06;;;;;;;2.50;1.52;;;;;;;15.10;87.27;100652.69;2057956;28;20134;-73
2023/09/02 02:01:13;;;;;;;4.50;1.80;;;;;;;15.09;87.07;100656.53;2067608;28;20031;-72
2023/09/02 02:02:16;;;;;;;6.40;1.90;;;;;;;15.09;86.91;100654.63;2082107;28;20108;-73
2023/09/02 02:03:25;;;;;;;5.18;1.83;;;;;;;15.09;87.12;100656.53;2066088;28;20059;-73
2023/09/02 02:04:35;;;;;;;3.38;1.70;;;;;;;15.09;86.94;100651.09;2068288;28;20070;-73
2023/09/02 02:05:51;;;;;;;3.42;1.90;;;;;;;15.11;86.92;100651.63;2074213;28;20822;-73
2023/09/02 02:06:59;;;;;;;4.88;1.83;;;;;;;15.08;87.21;100650.31;2068054;28;20912;-73
2023/09/02 02:08:10;;;;;;;3.13;2.28;;;;;;;15.09;87.17;100653.81;2074257;28;20145;-73
2023/09/02 02:09:24;;;;;;;3.83;2.05;;;;;;;15.09;87.42;100657.31;2075333;28;20824;-73
2023/09/02 02:10:29;;;;;;;5.78;2.17;;;;;;;15.10;87.43;100655.41;2066010;28;20089;-73
2023/09/02 02:11:35;;;;;;;4.18;2.17;;;;;;;15.10;87.56;100653.53;2058996;28;20779;-73
2023/09/02 02:12:40;;;;;;;3.53;2.38;;;;;;;15.07;87.46;100660.34;2082724;28;20034;-73
2023/09/02 02:13:45;;;;;;;2.40;1.77;;;;;;;15.06;87.29;100650.59;2089141;28;20026;-73
2023/09/02 02:14:46;;;;;;;2.90;1.85;;;;;;;15.06;87.33;100658.72;2065879;28;20074;-73
2023/09/02 02:15:48;;;;;;;3.88;2.00;;;;;;;15.07;87.73;100660.34;2074534;28;20034;-73
2023/09/02 02:16:50;;;;;;;3.38;1.90;;;;;;;15.07;87.48;100656.84;2073673;28;20213;-73
2023/09/02 02:17:52;;;;;;;4.45;1.80;;;;;;;15.06;87.75;100658.72;2066059;28;20039;-72
2023/09/02 02:18:56;;;;;;;2.92;1.77;;;;;;;15.05;87.59;100659.84;2073801;28;20038;-72
2023/09/02 02:19:58;;;;;;;4.55;1.95;;;;;;;15.06;87.78;100663.34;2074062;28;20034;-73
2023/09/02 02:21:03;;;;;;;3.40;1.90;;;;;;;15.05;87.62;100667.97;2066218;28;20035;-72
2023/09/02 02:22:09;;;;;;;3.50;1.88;;;;;;;15.06;87.74;100664.16;2083194;28;20041;-73
2023/09/02 02:23:11;;;;;;;5.80;1.90;;;;;;;15.06;87.73;100668.75;2089782;28;20373;-73
2023/09/02 02:24:14;;;;;;;3.08;1.80;;;;;;;15.06;88.17;100672.25;2082532;28;20033;-73
2023/09/02 02:25:16;;;;;;;4.57;1.90;;;;;;;15.05;88.08;100659.84;2081960;28;20042;-73
2023/09/02 02:26:20;;;;;;;3.35;1.83;;;;;;;15.05;88.20;100651.72;2074163;28;20027;-73
2023/09/02 02:27:23;;;;;;;3.13;1.75;;;;;;;15.06;87.96;100664.16;2074570;28;20034;-73
2023/09/02 02:28:25;;;;;;;3.60;1.75;;;;;;;15.07;87.92;100663.06;2065986;28;20049;-73
2023/09/02 02:29:29;;;;;;;3.47;1.77;;;;;;;15.10;87.87;100660.81;2074182;28;20038;-73
2023/09/02 02:30:31;;;;;;;4.07;1.65;;;;;;;15.10;88.04;100668.94;2089901;28;20073;-73
2023/09/02 02:31:34;;;;;;;4.35;1.90;;;;;;;15.09;88.14;100657.31;2090100;28;20033;-73
2023/09/02 02:32:36;;;;;;;2.67;1.45;;;;;;;15.09;88.14;100662.75;2082232;28;20045;-73
2023/09/02 02:33:38;;;;;;;4.63;2.03;;;;;;;15.10;88.12;100658.94;2082002;28;20772;-73
2023/09/02 02:34:40;;;;;;;2.40;1.40;;;;;;;15.11;88.00;100665.94;2074043;28;20161;-73
2023/09/02 02:35:42;;;;;;;4.60;1.85;;;;;;;15.12;88.24;100661.31;2065793;28;20031;-73
2023/09/02 02:36:43;;;;;;;3.75;1.85;;;;;;;15.12;88.26;100661.31;2074469;28;20065;-73
2023/09/02 02:37:45;;;;;;;2.40;1.48;;;;;;;15.12;88.22;100667.53;2081875;28;20072;-73
2023/09/02 02:38:47;;;;;;;3.92;1.90;;;;;;;15.12;88.13;100669.44;2073777;28;20073;-73
2023/09/02 02:39:48;;;;;;;3.65;1.80;;;;;;;15.12;88.50;100666.75;2073912;28;20065;-73
2023/09/02 02:40:50;;;;;;;4.18;1.85;;;;;;;15.13;88.67;100668.34;2082655;28;20041;-73
2023/09/02 02:41:57;;;;;;;4.55;2.05;;;;;;;15.11;88.35;100665.16;2081765;28;20049;-73
2023/09/02 02:43:02;;;;;;;4.47;1.83;;;;;;;15.13;88.73;100665.63;2075545;28;20078;-72
2023/09/02 02:44:05;;;;;;;2.10;1.70;;;;;;;15.13;88.57;100666.47;2073769;28;20031;-72
2023/09/02 02:45:08;;;;;;;2.63;1.60;;;;;;;15.14;88.38;100670.75;2065945;28;20865;-73
2023/09/02 02:46:10;;;;;;;3.83;2.20;;;;;;;15.14;88.45;100667.25;2066438;28;20105;-72
2023/09/02 02:47:11;;;;;;;2.88;1.80;;;;;;;15.15;88.45;100675.06;2065260;28;20237;-72
2023/09/02 02:48:15;;;;;;;2.22;1.50;;;;;;;15.17;88.49;100669.34;2082576;28;20034;-72
2023/09/02 02:49:17;;;;;;;2.63;1.90;;;;;;;15.17;88.45;100677.47;2073763;28;20042;-72
2023/09/02 02:50:21;;;;;;;5.80;2.08;;;;;;;15.16;88.73;100667.72;2074477;28;20085;-72
2023/09/02 02:51:33;;;;;;;3.55;1.92;;;;;;;15.18;88.62;100681.78;2078206;28;20725;-72
2023/09/02 02:52:35;;;;;;;4.45;1.90;;;;;;;15.18;88.60;100676.34;2068496;28;20034;-72
2023/09/02 02:53:37;;;;;;;4.60;2.38;;;;;;;15.18;88.50;100679.06;2081655;28;20722;-73
2023/09/02 02:54:40;;;;;;;3.22;2.08;;;;;;;15.18;88.88;100679.06;2065986;28;20221;-72
2023/09/02 02:55:42;;;;;;;3.38;2.35;;;;;;;15.18;88.85;100682.56;2065855;28;21021;-72
2023/09/02 02:56:46;;;;;;;4.28;2.00;;;;;;;15.18;88.59;100679.06;2065572;28;20046;-72
2023/09/02 02:57:48;;;;;;;3.30;2.30;;;;;;;15.19;88.40;100684.16;2074648;28;20081;-72
2023/09/02 02:58:50;;;;;;;2.95;2.22;;;;;;;15.19;88.61;100683.38;2073563;28;20049;-72
2023/09/02 02:59:57;;;;;;;3.88;2.25;;;;;;;15.19;88.91;100683.38;2065969;28;20775;-72
2023/09/02 03:01:05;;;;;;;3.03;2.17;;;;;;;15.18;88.83;100682.56;2082362;28;20069;-72
2023/09/02 03:02:07;;;;;;;4.57;2.20;;;;;;;15.18;88.64;100682.56;2073969;28;20038;-73
2023/09/02 03:03:10;;;;;;;5.07;3.20;;;;;;;15.17;89.01;100683.69;2057802;28;20043;-72
2023/09/02 03:04:14;;;;;;;3.53;2.25;;;;;;;15.16;88.88;100679.34;2051157;28;20044;-72
2023/09/02 03:05:18;;;;;;;2.78;2.10;;;;;;;15.17;88.88;100680.97;2057508;28;20038;-72
2023/09/02 03:06:22;;;;;;;4.22;2.10;;;;;;;15.17;88.89;100674.75;2059229;28;20750;-72
2023/09/02 03:07:24;;;;;;;3.85;2.13;;;;;;;15.17;88.90;100674.75;2065000;28;20038;-72
2023/09/02 03:08:26;;;;;;;3.92;2.25;;;;;;;15.16;88.90;100678.56;2068071;28;20039;-72
2023/09/02 03:09:28;;;;;;;3.65;1.90;;;;;;;15.17;89.23;100680.19;2081487;28;20034;-72
2023/09/02 03:10:31;;;;;;;6.15;2.50;;;;;;;15.17;89.17;100680.19;2065711;28;20117;-72
2023/09/02 03:11:34;;;;;;;4.20;2.08;;;;;;;15.17;89.31;100677.47;2073972;28;21283;-72
2023/09/02 03:12:38;;;;;;;2.95;2.33;;;;;;;15.17;89.18;100680.19;2073821;28;20034;-72
2023/09/02 03:13:43;;;;;;;6.45;2.58;;;;;;;15.17;89.16;100680.19;2066455;28;20041;-73
2023/09/02 03:14:59;;;;;;;5.90;2.30;;;;;;;15.18;89.08;100681.78;2083928;28;20765;-73
2023/09/02 03:16:02;;;;;;;4.10;2.33;;;;;;;15.18;89.44;100689.91;2081561;28;20088;-73
2023/09/02 03:17:04;;;;;;;5.82;2.30;;;;;;;15.17;89.38;100682.88;2057675;28;20031;-74
2023/09/02 03:18:09;;;;;;;4.60;2.13;;;;;;;15.18;89.45;100687.19;2074858;28;21116;-73
2023/09/02 03:19:10;;;;;;;4.82;2.22;;;;;;;15.17;89.01;100689.09;2073528;28;20068;-74
2023/09/02 03:20:13;;;;;;;6.80;2.50;;;;;;;15.16;89.39;100681.28;2066141;28;20110;-74
2023/09/02 03:21:15;;;;;;;4.03;2.15;;;;;;;15.15;89.24;100688.59;2090100;28;20165;-73
2023/09/02 03:22:17;;;;;;;3.83;2.25;;;;;;;15.15;89.26;100690.50;2089677;28;20932;-74
2023/09/02 03:23:23;;;;;;;5.45;2.30;;;;;;;15.14;89.23;100686.22;2076745;28;20916;-73
2023/09/02 03:24:24;;;;;;;4.88;2.42;;;;;;;15.13;89.60;100684.59;2073890;28;20133;-73
2023/09/02 03:25:30;;;;;;;4.53;2.50;;;;;;;15.13;89.18;100687.28;2073284;28;20069;-73
2023/09/02 03:26:32;;;;;;;6.38;2.17;;;;;;;15.12;89.45;100686.50;2089942;28;20029;-74
2023/09/02 03:27:36;;;;;;;5.55;2.33;;;;;;;15.12;89.70;100694.63;2090202;28;20183;-74
2023/09/02 03:28:43;;;;;;;4.40;2.40;;;;;;;15.11;89.46;100692.22;2082087;28;20065;-74
2023/09/02 03:29:50;;;;;;;4.40;2.60;;;;;;;15.10;89.50;100691.44;2074257;28;20790;-73
2023/09/02 03:30:53;;;;;;;4.07;2.00;;;;;;;15.10;89.81;100691.44;2082411;28;20878;-73
2023/09/02 03:31:54;;;;;;;3.50;2.03;;;;;;;15.10;89.57;100688.72;2065297;28;20125;-73
2023/09/02 03:32:57;;;;;;;7.07;2.40;;;;;;;15.11;89.96;100697.66;2074573;28;20068;-73
2023/09/02 03:34:01;;;;;;;3.55;2.20;;;;;;;15.10;89.84;100690.63;2080853;28;20096;-73
2023/09/02 03:35:04;;;;;;;5.45;2.10;;;;;;;15.10;89.50;100693.31;2074278;28;20037;-73
2023/09/02 03:36:07;;;;;;;3.83;1.83;;;;;;;15.10;89.82;100696.03;2081787;28;20153;-73
2023/09/02 03:37:11;;;;;;;4.18;2.17;;;;;;;15.09;89.97;100697.16;2074150;28;20853;-72
2023/09/02 03:38:15;;;;;;;4.30;2.42;;;;;;;15.07;89.66;100695.56;2074382;28;20034;-73
2023/09/02 03:39:17;;;;;;;5.32;2.47;;;;;;;15.06;90.02;100701.25;2081968;28;20124;-73
2023/09/02 03:40:21;;;;;;;3.72;2.30;;;;;;;15.05;90.03;100705.88;2081165;28;20033;-73
2023/09/02 03:41:23;;;;;;;6.55;2.60;;;;;;;15.05;89.66;100700.47;2066223;28;20881;-73
2023/09/02 03:42:25;;;;;;;6.65;3.17;;;;;;;15.04;89.95;100690.75;2073503;28;20038;-72
2023/09/02 03:43:29;;;;;;;4.57;2.28;;;;;;;15.05;90.18;100700.47;2065797;28;20086;-73
2023/09/02 03:44:31;;;;;;;4.93;2.30;;;;;;;15.05;90.29;100700.47;2065703;28;20038;-72
2023/09/02 03:45:35;;;;;;;4.78;2.60;;;;;;;15.04;90.21;100700.78;2073767;28;20044;-72
2023/09/02 03:46:37;;;;;;;4.20;2.38;;;;;;;15.04;90.41;100703.50;2081335;28;20064;-72
2023/09/02 03:47:39;;;;;;;4.57;2.15;;;;;;;15.04;90.23;100698.88;2082214;28;20034;-73
2023/09/02 03:48:43;;;;;;;3.67;2.40;;;;;;;15.01;90.08;100694.06;2089234;28;20059;-73
2023/09/02 03:49:46;;;;;;;5.18;2.33;;;;;;;15.04;90.43;100701.56;2073504;28;20133;-73
2023/09/02 03:51:23;;;;;;;3.05;2.30;;;;;;;15.04;90.12;100700.78;2065790;28;20114;-73
2023/09/02 03:52:31;;;;;;;4.85;2.13;;;;;;;15.04;90.37;100704.28;2062109;28;20129;-73
2023/09/02 03:53:32;;;;;;;6.28;2.83;;;;;;;15.04;90.76;100698.88;2058572;28;20090;-73
2023/09/02 03:54:35;;;;;;;11.20;3.50;;;;;;;15.04;90.53;100693.44;2081680;28;20905;-72
2023/09/02 03:55:36;;;;;;;6.35;2.90;;;;;;;15.05;90.64;100705.88;2081736;28;20080;-73
2023/09/02 03:56:39;;;;;;;5.78;2.60;;;;;;;15.05;90.41;100697.75;2081694;28;20034;-73
2023/09/02 03:57:41;;;;;;;8.55;2.28;;;;;;;15.05;90.80;100699.66;2081343;28;20357;-73
2023/09/02 03:58:44;;;;;;;8.23;2.47;;;;;;;15.05;90.76;100705.09;2065209;28;20054;-73
2023/09/02 03:59:45;;;;;;;8.63;2.47;;;;;;;15.04;90.63;100698.88;2065443;28;20035;-73
2023/09/02 04:00:48;;;;;;;4.38;2.60;;;;;;;15.06;90.61;100706.69;2073528;28;20035;-73
2023/09/02 04:01:50;;;;;;;5.25;2.63;;;;;;;15.05;90.67;100705.88;2082078;28;20026;-73
2023/09/02 04:02:52;;;;;;;7.72;2.67;;;;;;;15.06;90.70;100707.47;2081559;28;20033;-73
2023/09/02 04:03:53;;;;;;;6.18;2.70;;;;;;;15.06;90.92;100712.09;2065446;28;20026;-74
2023/09/02 04:05:03;;;;;;;10.85;2.42;;;;;;;15.05;90.70;100705.88;2065727;28;20038;-74
2023/09/02 04:06:06;;;;;;;9.68;2.60;;;;;;;15.05;90.89;100703.16;2074918;28;20112;-74
2023/09/02 04:07:08;;;;;;;7.20;2.50;;;;;;;15.05;91.19;100714.00;2073668;28;20042;-73
2023/09/02 04:08:09;;;;;;;4.35;2.53;;;;;;;15.05;90.98;100710.50;2073499;28;20026;-72
2023/09/02 04:09:12;;;;;;;3.78;2.50;;;;;;;15.04;91.09;100720.53;2081861;28;20037;-73
2023/09/02 04:10:17;;;;;;;5.28;2.83;;;;;;;15.04;91.14;100719.75;2073266;28;20162;-73
2023/09/02 04:11:18;;;;;;;9.40;2.90;;;;;;;15.03;91.33;100716.19;2073624;28;20030;-73
2023/09/02 04:12:23;;;;;;;5.00;2.53;;;;;;;15.03;91.15;100716.19;2065536;28;20035;-73
2023/09/02 04:13:26;;;;;;;7.07;3.08;;;;;;;15.04;91.34;100712.41;2066009;28;20027;-73
2023/09/02 04:14:30;;;;;;;5.07;2.25;;;;;;;15.04;91.44;100707.00;2065520;28;20842;-73
2023/09/02 04:15:37;;;;;;;6.60;2.35;;;;;;;15.04;91.19;100711.63;2057591;28;20038;-73
2023/09/02 04:16:39;;;;;;;7.32;2.38;;;;;;;15.06;91.58;100718.31;2074232;28;20065;-73
2023/09/02 04:17:41;;;;;;;7.18;2.75;;;;;;;15.06;91.30;100721.00;2064941;28;20046;-73
2023/09/02 04:18:43;;;;;;;6.53;2.40;;;;;;;15.08;91.50;100715.31;2073519;28;20049;-73
2023/09/02 04:19:45;;;;;;;6.85;2.45;;;;;;;15.10;91.76;100725.81;2081373;28;20038;-73
2023/09/02 04:20:46;;;;;;;4.95;2.42;;;;;;;15.10;91.55;100723.09;2065535;28;20146;-73
2023/09/02 04:21:49;;;;;;;4.55;2.38;;;;;;;15.11;91.52;100724.72;2073315;28;20073;-73
2023/09/02 04:22:51;;;;;;;5.38;2.05;;;;;;;15.11;91.76;100728.25;2073653;28;20081;-73
2023/09/02 04:23:53;;;;;;;5.47;2.33;;;;;;;15.12;91.97;100729.03;2072417;28;20866;-73
2023/09/02 04:24:56;;;;;;;6.18;2.40;;;;;;;15.14;92.30;100729.53;2073702;28;20781;-73
2023/09/02 04:25:59;;;;;;;9.38;2.40;;;;;;;15.15;92.18;100731.13;2081528;28;20144;-73
2023/09/02 04:27:01;;;;;;;4.63;2.25;;;;;;;15.16;91.98;100728.09;2073512;28;20038;-73
2023/09/02 04:28:04;;;;;;;4.75;2.15;;;;;;;15.18;92.20;100735.94;2073369;28;20135;-73
2023/09/02 04:29:06;;;;;;;7.25;2.78;;;;;;;15.20;92.34;100736.44;2065353;28;20191;-73
2023/09/02 04:30:09;;;;;;;3.88;2.00;;;;;;;15.21;92.44;100732.63;2065195;28;20046;-73
2023/09/02 04:31:10;;;;;;;5.60;2.30;;;;;;;15.20;92.31;100734.53;2065735;28;20030;-73
2023/09/02 04:32:13;;;;;;;6.68;2.03;;;;;;;15.21;92.57;100735.34;2065366;28;20055;-73
2023/09/02 04:33:18;;;;;;;3.53;2.13;;;;;;;15.23;92.50;100727.72;2073704;28;20078;-73
2023/09/02 04:34:22;;;;;;;4.10;2.13;;;;;;;15.24;92.53;100740.13;2090155;28;20061;-72
2023/09/02 04:35:25;;;;;;;4.47;2.20;;;;;;;15.25;92.23;100739.03;2080995;28;20835;-72
2023/09/02 04:36:30;;;;;;;6.13;2.20;;;;;;;15.27;92.59;100742.25;2058018;28;20043;-73
2023/09/02 04:37:32;;;;;;;4.35;2.17;;;;;;;15.28;92.67;100738.41;2075470;28;20026;-73
2023/09/02 04:38:35;;;;;;;4.13;2.20;;;;;;;15.29;92.76;100738.13;2082594;28;20156;-72
2023/09/02 04:39:40;;;;;;;4.43;2.33;;;;;;;15.32;92.77;100731.31;2066751;28;20045;-73
2023/09/02 04:40:44;;;;;;;2.25;1.92;;;;;;;15.32;92.74;100731.31;2068120;28;20027;-73
2023/09/02 04:41:46;;;;;;;4.88;2.40;;;;;;;15.34;92.59;100745.31;2074420;28;20876;-72
2023/09/02 04:42:48;;;;;;;3.45;1.95;;;;;;;15.36;92.75;100753.16;2081393;28;20849;-71
2023/09/02 04:43:51;;;;;;;8.30;2.00;;;;;;;15.38;93.24;100740.88;2089949;28;20148;-72
2023/09/02 04:44:56;;;;;;;4.43;2.20;;;;;;;15.40;92.87;100746.81;2097169;28;20025;-72
2023/09/02 04:46:01;;;;;;;2.97;2.00;;;;;;;15.43;93.02;100748.13;2097810;28;20036;-72
2023/09/02 04:47:06;;;;;;;14.50;2.70;;;;;;;15.46;93.13;100748.28;2088786;28;20033;-72
2023/09/02 04:48:09;;;;;;;6.22;2.15;;;;;;;15.48;93.28;100751.50;2073692;28;20053;-72
2023/09/02 04:49:11;;;;;;;5.05;2.70;;;;;;;15.51;93.24;100750.91;2073574;28;20909;-72
2023/09/02 04:50:12;;;;;;;4.40;2.22;;;;;;;15.54;93.00;100754.88;2076687;28;20903;-72
2023/09/02 04:51:16;;;;;;;7.13;2.45;;;;;;;15.58;93.42;100749.69;2070078;28;20038;-73
2023/09/02 04:52:21;;;;;;;4.65;2.20;;;;;;;15.62;93.38;100756.06;2073463;28;20034;-73
2023/09/02 04:53:24;;;;;;;5.90;2.25;;;;;;;15.64;93.27;100751.16;2065034;28;20904;-73
2023/09/02 04:54:26;;;;;;;4.93;2.28;;;;;;;15.67;93.22;100754.06;2065738;28;20035;-73
2023/09/02 04:55:28;;;;;;;5.15;2.25;;;;;;;15.70;93.55;100752.66;2073135;28;20039;-73
2023/09/02 04:56:31;;;;;;;3.28;2.10;;;;;;;15.74;93.40;100757.16;2073124;28;20034;-73